createdAt,value
2022-10-15T00:02:34.680Z,9.30
2022-10-15T00:05:03.492Z,9.20
2022-10-15T00:07:32.119Z,9.00
2022-10-15T00:10:00.864Z,9.20
2022-10-15T00:12:29.611Z,9.00
2022-10-15T00:14:58.530Z,9.10
2022-10-15T00:17:27.364Z,9.00
2022-10-15T00:19:57.810Z,9.00
2022-10-15T00:22:26.520Z,8.70
2022-10-15T00:24:55.270Z,9.00
2022-10-15T00:27:24.030Z,8.90
2022-10-15T00:29:54.000Z,9.10
2022-10-15T00:32:23.876Z,8.90
2022-10-15T00:39:56.944Z,8.90
2022-10-15T00:44:57.137Z,9.00
2022-10-15T00:50:04.129Z,9.10
2022-10-15T00:55:13.813Z,8.30
2022-10-15T00:57:44.405Z,9.00
2022-10-15T01:00:16.425Z,9.00
2022-10-15T01:02:47.457Z,9.00
2022-10-15T01:05:18.740Z,9.10
2022-10-15T01:07:48.883Z,9.00
2022-10-15T01:10:19.315Z,9.10
2022-10-15T01:12:58.704Z,9.10
2022-10-15T01:15:31.587Z,9.10
2022-10-15T01:18:04.523Z,9.20
2022-10-15T01:21:10.475Z,9.20
2022-10-15T01:24:18.258Z,9.20
2022-10-15T01:27:05.856Z,8.60
2022-10-15T01:29:53.422Z,9.30
2022-10-15T01:32:28.429Z,9.30
2022-10-15T01:35:04.643Z,9.30
2022-10-15T01:37:42.803Z,9.30
2022-10-15T01:40:18.366Z,9.30
2022-10-15T01:42:52.602Z,9.30
2022-10-15T01:45:25.927Z,9.40
2022-10-15T01:48:11.812Z,9.30
2022-10-15T01:50:45.434Z,9.40
2022-10-15T01:53:18.832Z,9.40
2022-10-15T01:55:49.012Z,9.40
2022-10-15T01:58:19.155Z,9.40
2022-10-15T02:00:49.908Z,9.50
2022-10-15T02:03:20.125Z,9.30
2022-10-15T02:05:54.342Z,9.50
2022-10-15T02:08:29.529Z,9.30
2022-10-15T02:11:04.646Z,9.70
2022-10-15T02:13:42.738Z,9.30
2022-10-15T02:16:18.228Z,9.40
2022-10-15T02:19:02.482Z,9.50
2022-10-15T02:21:34.937Z,9.50
2022-10-15T02:24:10.441Z,9.50
2022-10-15T02:26:41.105Z,9.50
2022-10-15T02:29:14.290Z,9.50
2022-10-15T02:31:46.916Z,9.50
2022-10-15T02:34:21.800Z,9.50
2022-10-15T02:36:51.389Z,9.50
2022-10-15T02:39:24.376Z,9.60
2022-10-15T02:41:54.545Z,9.60
2022-10-15T02:44:23.730Z,9.60
2022-10-15T02:46:52.501Z,9.60
2022-10-15T02:49:23.897Z,9.60
2022-10-15T02:51:53.864Z,9.60
2022-10-15T02:54:22.553Z,9.60
2022-10-15T02:56:51.281Z,9.60
2022-10-15T02:59:22.703Z,9.60
2022-10-15T03:01:52.347Z,9.60
2022-10-15T03:04:21.509Z,9.60
2022-10-15T03:06:52.074Z,9.60
2022-10-15T03:09:21.634Z,9.60
2022-10-15T03:11:50.427Z,9.60
2022-10-15T03:14:19.996Z,9.60
2022-10-15T03:16:49.661Z,9.60
2022-10-15T03:19:18.842Z,9.60
2022-10-15T03:21:48.761Z,9.60
2022-10-15T03:24:19.532Z,9.70
2022-10-15T03:26:48.339Z,9.70
2022-10-15T03:29:17.155Z,9.60
2022-10-15T03:31:52.925Z,9.70
2022-10-15T03:34:22.701Z,9.70
2022-10-15T03:36:51.888Z,9.60
2022-10-15T03:39:22.228Z,9.60
2022-10-15T03:41:55.189Z,9.60
2022-10-15T03:44:31.458Z,9.60
2022-10-15T03:47:07.848Z,9.60
2022-10-15T03:49:46.765Z,9.60
2022-10-15T03:52:15.919Z,9.60
2022-10-15T03:54:46.852Z,9.60
2022-10-15T03:57:18.533Z,9.70
2022-10-15T03:59:52.408Z,9.60
2022-10-15T04:02:23.896Z,9.70
2022-10-15T04:04:54.103Z,9.60
2022-10-15T04:07:22.987Z,9.70
2022-10-15T04:09:53.120Z,9.70
2022-10-15T04:12:25.995Z,9.60
2022-10-15T04:14:54.926Z,9.60
2022-10-15T04:17:23.905Z,9.60
2022-10-15T04:19:53.091Z,9.70
2022-10-15T04:22:23.574Z,9.60
2022-10-15T04:24:59.363Z,9.70
2022-10-15T04:27:30.086Z,9.60
2022-10-15T04:30:19.772Z,9.60
2022-10-15T04:32:55.358Z,9.70
2022-10-15T04:35:24.411Z,9.70
2022-10-15T04:38:06.972Z,9.70
2022-10-15T04:41:02.993Z,9.70
2022-10-15T04:43:44.309Z,9.70
2022-10-15T04:46:15.000Z,9.70
2022-10-15T04:48:43.779Z,9.60
2022-10-15T04:51:17.485Z,9.70
2022-10-15T04:54:04.495Z,9.70
2022-10-15T04:56:35.647Z,9.70
2022-10-15T04:59:08.752Z,9.70
2022-10-15T05:01:56.177Z,9.70
2022-10-15T05:04:25.072Z,9.70
2022-10-15T05:06:53.686Z,9.70
2022-10-15T05:09:22.620Z,9.70
2022-10-15T05:11:56.018Z,9.70
2022-10-15T05:14:24.899Z,9.70
2022-10-15T05:17:06.686Z,9.70
2022-10-15T05:19:41.554Z,9.70
2022-10-15T05:22:18.184Z,9.70
2022-10-15T05:24:54.640Z,9.70
2022-10-15T05:27:44.516Z,9.70
2022-10-15T05:30:13.769Z,9.70
2022-10-15T05:32:53.437Z,9.70
2022-10-15T05:35:23.641Z,9.60
2022-10-15T05:38:04.462Z,9.60
2022-10-15T05:40:33.240Z,9.50
2022-10-15T05:43:09.901Z,9.50
2022-10-15T05:45:38.723Z,9.50
2022-10-15T05:48:08.844Z,9.50
2022-10-15T05:50:37.853Z,9.50
2022-10-15T05:53:10.545Z,9.50
2022-10-15T05:55:53.996Z,9.50
2022-10-15T05:58:25.026Z,9.40
2022-10-15T06:00:57.135Z,9.40
2022-10-15T06:03:27.447Z,9.40
2022-10-15T06:05:56.425Z,9.50
2022-10-15T06:08:25.898Z,9.40
2022-10-15T06:10:56.151Z,9.50
2022-10-15T06:16:00.154Z,9.40
2022-10-15T06:18:28.949Z,9.40
2022-10-15T06:20:59.769Z,9.50
2022-10-15T06:23:28.731Z,9.50
2022-10-15T06:25:57.656Z,9.60
2022-10-15T06:28:27.942Z,9.60
2022-10-15T06:31:00.229Z,9.60
2022-10-15T06:33:32.737Z,9.60
2022-10-15T06:36:04.641Z,9.60
2022-10-15T06:38:33.492Z,9.60
2022-10-15T06:41:02.137Z,9.70
2022-10-15T06:43:34.138Z,9.70
2022-10-15T06:46:05.201Z,9.70
2022-10-15T06:48:34.171Z,9.70
2022-10-15T06:51:03.674Z,9.70
2022-10-15T06:53:32.775Z,9.80
2022-10-15T06:56:03.091Z,9.70
2022-10-15T06:58:39.359Z,9.70
2022-10-15T07:01:10.270Z,9.80
2022-10-15T07:03:39.334Z,9.80
2022-10-15T07:06:11.395Z,9.90
2022-10-15T07:08:40.300Z,10.00
2022-10-15T07:11:10.108Z,10.10
2022-10-15T07:13:40.845Z,10.10
2022-10-15T07:16:12.518Z,10.10
2022-10-15T07:18:41.620Z,10.20
2022-10-15T07:21:11.882Z,10.20
2022-10-15T07:23:41.017Z,10.30
2022-10-15T07:26:09.847Z,10.40
2022-10-15T07:28:39.946Z,10.40
2022-10-15T07:31:09.484Z,8.00
2022-10-15T07:33:38.043Z,10.60
2022-10-15T07:36:08.135Z,10.70
2022-10-15T07:38:37.845Z,10.60
2022-10-15T07:41:07.360Z,10.70
2022-10-15T07:43:45.754Z,10.70
2022-10-15T07:46:14.533Z,10.70
2022-10-15T07:48:43.210Z,10.60
2022-10-15T07:51:13.075Z,10.70
2022-10-15T07:53:41.873Z,10.70
2022-10-15T07:56:13.632Z,10.70
2022-10-15T07:58:43.350Z,10.60
2022-10-15T08:01:13.586Z,10.80
2022-10-15T08:03:42.314Z,10.70
2022-10-15T08:06:11.842Z,10.70
2022-10-15T08:08:40.744Z,10.90
2022-10-15T08:11:11.678Z,10.90
2022-10-15T08:13:42.378Z,10.90
2022-10-15T08:16:14.121Z,10.90
2022-10-15T08:18:48.966Z,10.90
2022-10-15T08:21:18.080Z,10.90
2022-10-15T08:23:46.792Z,11.00
2022-10-15T08:26:15.453Z,11.00
2022-10-15T08:28:44.343Z,10.90
2022-10-15T08:31:15.048Z,10.90
2022-10-15T08:33:46.171Z,11.00
2022-10-15T08:36:14.904Z,11.00
2022-10-15T08:38:46.678Z,11.00
2022-10-15T08:41:24.806Z,11.10
2022-10-15T08:43:53.876Z,11.10
2022-10-15T08:46:30.198Z,11.10
2022-10-15T08:49:02.077Z,11.10
2022-10-15T08:51:39.821Z,11.20
2022-10-15T08:54:15.061Z,11.30
2022-10-15T08:56:47.895Z,11.30
2022-10-15T08:59:27.609Z,11.30
2022-10-15T09:02:03.714Z,11.30
2022-10-15T09:04:38.972Z,11.30
2022-10-15T09:07:13.215Z,11.40
2022-10-15T09:09:49.405Z,11.80
2022-10-15T09:12:35.503Z,11.50
2022-10-15T09:15:06.589Z,11.30
2022-10-15T09:17:38.262Z,11.50
2022-10-15T09:20:09.035Z,12.10
2022-10-15T09:22:37.930Z,11.60
2022-10-15T09:25:16.297Z,11.60
2022-10-15T09:27:47.432Z,10.80
2022-10-15T09:30:29.046Z,12.50
2022-10-15T09:35:35.694Z,11.60
2022-10-15T09:38:17.427Z,11.60
2022-10-15T09:41:02.127Z,11.60
2022-10-15T09:43:36.345Z,11.60
2022-10-15T09:46:05.765Z,11.70
2022-10-15T09:48:41.875Z,11.70
2022-10-15T09:51:26.749Z,11.80
2022-10-15T09:54:05.107Z,11.80
2022-10-15T09:56:37.760Z,11.90
2022-10-15T09:59:09.628Z,11.90
2022-10-15T10:01:38.556Z,12.00
2022-10-15T10:04:19.187Z,12.00
2022-10-15T10:06:51.202Z,12.00
2022-10-15T10:09:22.895Z,12.00
2022-10-15T10:11:54.739Z,12.00
2022-10-15T10:14:28.283Z,12.00
2022-10-15T10:17:18.458Z,12.00
2022-10-15T10:20:06.341Z,11.90
2022-10-15T10:22:46.568Z,11.80
2022-10-15T10:25:39.320Z,11.70
2022-10-15T10:28:18.819Z,11.60
2022-10-15T10:30:53.136Z,11.50
2022-10-15T10:33:28.103Z,11.50
2022-10-15T10:35:59.029Z,11.40
2022-10-15T10:38:30.955Z,11.40
2022-10-15T10:41:07.647Z,11.50
2022-10-15T10:43:39.313Z,11.50
2022-10-15T10:46:19.809Z,11.60
2022-10-15T10:48:50.040Z,11.60
2022-10-15T10:51:21.951Z,11.60
2022-10-15T10:53:57.884Z,11.60
2022-10-15T10:56:32.376Z,11.50
2022-10-15T10:59:05.451Z,11.50
2022-10-15T11:01:34.204Z,11.50
2022-10-15T11:04:03.651Z,11.40
2022-10-15T11:06:59.320Z,11.50
2022-10-15T11:09:43.521Z,11.60
2022-10-15T11:12:30.236Z,11.60
2022-10-15T11:15:07.855Z,11.60
2022-10-15T11:17:48.291Z,11.50
2022-10-15T11:20:49.719Z,11.50
2022-10-15T11:23:39.354Z,11.40
2022-10-15T11:26:20.998Z,11.40
2022-10-15T11:28:59.803Z,11.40
2022-10-15T11:31:40.623Z,11.40
2022-10-15T11:34:34.399Z,11.40
2022-10-15T11:37:17.728Z,11.40
2022-10-15T11:40:04.573Z,11.50
2022-10-15T11:42:42.484Z,11.50
2022-10-15T11:45:34.905Z,11.60
2022-10-15T11:48:12.691Z,11.60
2022-10-15T11:50:46.414Z,11.50
2022-10-15T11:53:35.441Z,11.50
2022-10-15T11:56:11.205Z,11.50
2022-10-15T11:58:45.084Z,11.50
2022-10-15T12:01:18.508Z,11.50
2022-10-15T12:03:55.185Z,11.50
2022-10-15T12:06:29.793Z,11.50
2022-10-15T12:09:01.615Z,11.60
2022-10-15T12:11:44.054Z,11.60
2022-10-15T12:14:26.191Z,11.70
2022-10-15T12:17:03.847Z,11.60
2022-10-15T12:19:42.144Z,11.60
2022-10-15T12:22:12.606Z,11.70
2022-10-15T12:24:57.106Z,11.70
2022-10-15T12:27:37.175Z,11.80
2022-10-15T12:30:28.066Z,11.90
2022-10-15T12:32:57.234Z,11.90
2022-10-15T12:35:41.031Z,12.00
2022-10-15T12:38:22.527Z,12.10
2022-10-15T12:41:03.061Z,12.20
2022-10-15T12:43:38.126Z,12.20
2022-10-15T12:46:09.528Z,12.30
2022-10-15T12:48:40.756Z,12.30
2022-10-15T12:51:39.623Z,12.30
2022-10-15T12:54:44.438Z,12.20
2022-10-15T12:57:56.035Z,12.20
2022-10-15T13:00:38.087Z,12.10
2022-10-15T13:03:32.325Z,12.10
2022-10-15T13:06:16.556Z,12.00
2022-10-15T13:08:46.611Z,12.00
2022-10-15T13:11:22.965Z,12.00
2022-10-15T13:13:54.311Z,11.90
2022-10-15T13:16:24.816Z,11.90
2022-10-15T13:18:57.373Z,12.00
2022-10-15T13:21:48.818Z,12.00
2022-10-15T13:24:20.546Z,12.00
2022-10-15T13:26:49.861Z,12.00
2022-10-15T13:29:20.299Z,12.00
2022-10-15T13:31:51.650Z,12.00
2022-10-15T13:34:28.355Z,12.10
2022-10-15T13:36:59.821Z,12.10
2022-10-15T13:42:09.468Z,12.10
2022-10-15T13:44:38.423Z,12.10
2022-10-15T13:47:27.218Z,12.20
2022-10-15T13:50:28.122Z,12.20
2022-10-15T13:53:00.880Z,12.20
2022-10-15T13:55:31.569Z,12.20
2022-10-15T13:58:04.234Z,12.20
2022-10-15T14:00:35.810Z,12.30
2022-10-15T14:03:27.418Z,12.30
2022-10-15T14:05:57.666Z,12.30
2022-10-15T14:08:29.481Z,12.30
2022-10-15T14:11:00.614Z,12.30
2022-10-15T14:13:29.848Z,12.30
2022-10-15T14:16:12.966Z,12.30
2022-10-15T14:18:49.152Z,12.30
2022-10-15T14:21:20.967Z,12.30
2022-10-15T14:23:51.198Z,12.30
2022-10-15T14:26:25.988Z,12.30
2022-10-15T14:28:56.138Z,12.20
2022-10-15T14:31:38.030Z,12.20
2022-10-15T14:34:30.340Z,12.20
2022-10-15T14:36:59.172Z,12.30
2022-10-15T14:39:31.478Z,12.30
2022-10-15T14:42:01.866Z,12.30
2022-10-15T14:44:43.412Z,12.30
2022-10-15T14:47:20.426Z,12.30
2022-10-15T14:49:52.952Z,12.30
2022-10-15T14:52:22.973Z,12.30
2022-10-15T14:55:01.997Z,12.30
2022-10-15T14:57:35.896Z,12.30
2022-10-15T15:00:12.489Z,12.20
2022-10-15T15:02:41.508Z,12.20
2022-10-15T15:05:21.798Z,12.30
2022-10-15T15:07:51.834Z,12.30
2022-10-15T15:10:21.791Z,12.30
2022-10-15T15:12:53.709Z,12.30
2022-10-15T15:15:28.302Z,12.30
2022-10-15T15:17:57.447Z,12.20
2022-10-15T15:20:28.695Z,12.30
2022-10-15T15:22:57.542Z,12.30
2022-10-15T15:25:30.781Z,12.30
2022-10-15T15:27:59.844Z,12.30
2022-10-15T15:30:31.347Z,12.30
2022-10-15T15:33:01.237Z,12.30
2022-10-15T15:35:36.723Z,12.40
2022-10-15T15:38:08.455Z,12.40
2022-10-15T15:40:37.767Z,12.40
2022-10-15T15:43:06.435Z,12.40
2022-10-15T15:45:35.423Z,12.40
2022-10-15T15:48:05.031Z,12.40
2022-10-15T15:50:36.161Z,12.50
2022-10-15T15:53:05.602Z,12.40
2022-10-15T15:55:34.294Z,12.40
2022-10-15T15:58:02.913Z,12.40
2022-10-15T16:00:31.746Z,12.40
2022-10-15T16:03:00.381Z,12.40
2022-10-15T16:05:29.058Z,12.50
2022-10-15T16:07:59.083Z,12.40
2022-10-15T16:10:27.767Z,12.50
2022-10-15T16:12:56.917Z,12.50
2022-10-15T16:15:25.637Z,12.50
2022-10-15T16:17:54.201Z,12.50
2022-10-15T16:20:23.471Z,12.50
2022-10-15T16:22:52.645Z,12.50
2022-10-15T16:25:25.269Z,12.50
2022-10-15T16:27:57.306Z,12.50
2022-10-15T16:30:26.014Z,12.50
2022-10-15T16:32:55.005Z,12.50
2022-10-15T16:35:23.948Z,12.50
2022-10-15T16:37:56.128Z,12.50
2022-10-15T16:40:27.329Z,12.50
2022-10-15T16:42:56.072Z,12.50
2022-10-15T16:45:25.102Z,12.50
2022-10-15T16:47:55.386Z,12.60
2022-10-15T16:50:24.269Z,12.50
2022-10-15T16:52:52.865Z,12.50
2022-10-15T16:55:21.552Z,12.50
2022-10-15T16:57:51.621Z,12.50
2022-10-15T17:00:20.444Z,12.50
2022-10-15T17:02:49.068Z,12.50
2022-10-15T17:05:18.126Z,12.50
2022-10-15T17:07:46.775Z,12.50
2022-10-15T17:10:15.496Z,12.50
2022-10-15T17:12:44.182Z,12.50
2022-10-15T17:15:14.339Z,12.50
2022-10-15T17:17:44.760Z,12.50
2022-10-15T17:20:13.874Z,12.50
2022-10-15T17:22:42.540Z,12.50
2022-10-15T17:25:11.598Z,12.50
2022-10-15T17:27:40.216Z,12.50
2022-10-15T17:30:10.213Z,12.40
2022-10-15T17:32:40.339Z,12.50
2022-10-15T17:35:09.219Z,12.50
2022-10-15T17:37:38.892Z,12.50
2022-10-15T17:40:07.913Z,12.40
2022-10-15T17:42:37.127Z,12.40
2022-10-15T17:45:06.575Z,12.40
2022-10-15T17:47:35.198Z,12.40
2022-10-15T17:50:05.682Z,12.40
2022-10-15T17:52:34.473Z,12.40
2022-10-15T17:55:03.141Z,12.40
2022-10-15T17:57:31.805Z,12.40
2022-10-15T18:00:00.484Z,12.40
2022-10-15T18:02:29.135Z,12.30
2022-10-15T18:04:57.866Z,12.30
2022-10-15T18:07:28.066Z,12.30
2022-10-15T18:09:56.920Z,12.30
2022-10-15T18:12:25.531Z,12.20
2022-10-15T18:14:54.204Z,12.20
2022-10-15T18:17:26.792Z,12.20
2022-10-15T18:19:55.770Z,12.10
2022-10-15T18:22:24.395Z,12.10
2022-10-15T18:24:56.296Z,12.10
2022-10-15T18:27:25.444Z,12.10
2022-10-15T18:29:54.218Z,12.00
2022-10-15T18:32:22.883Z,12.00
2022-10-15T18:34:51.526Z,12.00
2022-10-15T18:37:20.176Z,12.00
2022-10-15T18:39:48.773Z,12.00
2022-10-15T18:42:18.965Z,12.00
2022-10-15T18:44:47.749Z,12.00
2022-10-15T18:47:16.411Z,11.90
2022-10-15T18:49:46.559Z,11.90
2022-10-15T18:52:38.381Z,11.90
2022-10-15T18:55:04.082Z,11.90
2022-10-15T18:57:34.984Z,11.80
2022-10-15T19:00:04.304Z,11.90
2022-10-15T19:02:32.939Z,11.90
2022-10-15T19:05:01.621Z,11.80
2022-10-15T19:07:31.758Z,11.90
2022-10-15T19:10:01.102Z,12.40
2022-10-15T19:12:29.820Z,11.90
2022-10-15T19:14:59.847Z,12.00
2022-10-15T19:17:30.087Z,11.90
2022-10-15T19:19:58.765Z,11.90
2022-10-15T19:22:28.634Z,11.90
2022-10-15T19:24:58.062Z,11.90
2022-10-15T19:27:27.269Z,12.00
2022-10-15T19:29:55.984Z,12.00
2022-10-15T19:32:26.221Z,12.00
2022-10-15T19:34:54.898Z,12.00
2022-10-15T19:37:24.199Z,12.00
2022-10-15T19:39:52.824Z,12.10
2022-10-15T19:42:22.976Z,12.10
2022-10-15T19:44:51.597Z,12.20
2022-10-15T19:47:21.145Z,12.20
2022-10-15T19:49:52.143Z,12.20
2022-10-15T19:52:20.867Z,12.10
2022-10-15T19:54:52.892Z,12.20
2022-10-15T19:57:21.623Z,12.10
2022-10-15T19:59:50.211Z,12.20
2022-10-15T20:02:18.928Z,12.10
2022-10-15T20:04:47.644Z,12.10
2022-10-15T20:07:18.690Z,12.10
2022-10-15T20:09:47.767Z,11.70
2022-10-15T20:12:16.358Z,12.10
2022-10-15T20:14:44.956Z,12.00
2022-10-15T20:17:13.651Z,12.00
2022-10-15T20:19:42.326Z,12.10
2022-10-15T20:22:11.030Z,12.10
2022-10-15T20:24:41.219Z,12.20
2022-10-15T20:27:09.909Z,12.30
2022-10-15T20:29:38.658Z,12.10
2022-10-15T20:32:11.307Z,12.20
2022-10-15T20:34:51.900Z,12.50
2022-10-15T20:37:21.028Z,12.30
2022-10-15T20:39:51.052Z,12.20
2022-10-15T20:42:19.908Z,12.30
2022-10-15T20:44:48.561Z,12.20
2022-10-15T20:47:17.717Z,12.20
2022-10-15T20:49:49.565Z,12.20
2022-10-15T20:52:18.274Z,12.30
2022-10-15T20:54:47.233Z,12.20
2022-10-15T20:57:17.357Z,12.20
2022-10-15T20:59:45.998Z,12.20
2022-10-15T21:02:14.800Z,12.20
2022-10-15T21:04:43.461Z,12.30
2022-10-15T21:07:12.107Z,12.20
2022-10-15T21:09:40.831Z,12.20
2022-10-15T21:12:10.397Z,12.10
2022-10-15T21:14:40.582Z,12.10
2022-10-15T21:17:09.358Z,12.20
2022-10-15T21:19:38.212Z,12.20
2022-10-15T21:22:06.970Z,12.20
2022-10-15T21:24:35.957Z,12.20
2022-10-15T21:27:04.689Z,12.20
2022-10-15T21:29:33.446Z,12.10
2022-10-15T21:32:03.593Z,12.20
2022-10-15T21:34:32.361Z,12.30
2022-10-15T21:37:01.009Z,12.30
2022-10-15T21:39:29.818Z,12.20
2022-10-15T21:41:58.418Z,12.20
2022-10-15T21:44:27.165Z,12.20
2022-10-15T21:46:55.897Z,12.20
2022-10-15T21:49:25.873Z,12.30
2022-10-15T21:51:54.783Z,12.40
2022-10-15T21:54:23.504Z,12.20
2022-10-15T21:56:52.178Z,12.30
2022-10-15T21:59:20.863Z,12.30
2022-10-15T22:01:49.478Z,12.30
2022-10-15T22:04:18.098Z,12.20
2022-10-15T22:06:48.290Z,12.20
2022-10-15T22:09:16.985Z,12.20
2022-10-15T22:11:45.535Z,12.20
2022-10-15T22:14:16.437Z,12.30
2022-10-15T22:16:45.114Z,12.20
2022-10-15T22:19:16.816Z,12.20
2022-10-15T22:21:47.309Z,12.30
2022-10-15T22:24:17.988Z,12.30
2022-10-15T22:26:48.192Z,12.20
2022-10-15T22:29:21.645Z,12.20
2022-10-15T22:31:51.231Z,12.30
2022-10-15T22:34:20.870Z,12.20
2022-10-15T22:36:51.558Z,12.20
2022-10-15T22:39:20.547Z,12.20
2022-10-15T22:41:50.003Z,12.20
2022-10-15T22:44:19.552Z,12.20
2022-10-15T22:46:49.698Z,12.20
2022-10-15T22:49:20.866Z,12.20
2022-10-15T22:51:52.157Z,12.20
2022-10-15T22:54:23.390Z,12.20
2022-10-15T22:56:52.903Z,12.20
2022-10-15T22:59:21.365Z,12.10
2022-10-15T23:01:50.284Z,12.10
2022-10-15T23:04:18.925Z,12.20
2022-10-15T23:06:47.566Z,12.20
2022-10-15T23:09:20.022Z,12.20
2022-10-15T23:11:48.808Z,12.20
2022-10-15T23:14:18.660Z,12.10
2022-10-15T23:16:48.958Z,12.20
2022-10-15T23:19:19.716Z,12.20
2022-10-15T23:21:49.949Z,12.20
2022-10-15T23:24:21.907Z,12.20
2022-10-15T23:26:50.838Z,12.20
2022-10-15T23:29:21.042Z,12.20
2022-10-15T23:31:50.401Z,12.10
2022-10-15T23:34:20.382Z,12.10
2022-10-15T23:36:49.125Z,12.20
2022-10-15T23:39:20.959Z,12.10
2022-10-15T23:41:49.930Z,12.20
2022-10-15T23:44:18.671Z,12.10
2022-10-15T23:46:47.795Z,12.10
2022-10-15T23:49:16.455Z,12.20
2022-10-15T23:51:45.126Z,12.20
2022-10-15T23:54:16.371Z,12.10
2022-10-15T23:56:47.169Z,12.10
2022-10-15T23:59:16.855Z,12.10
